sensor_id;sensor_type;location;lat;lon;timestamp;P1;durP1;ratioP1;P2;durP2;ratioP2
14040;SDS011;7095;51.388;6.196;2023-04-12T00:00:06;10.77;;;2.87;;
14040;SDS011;7095;51.388;6.196;2023-04-12T00:02:39;13.60;;;3.00;;
14040;SDS011;7095;51.388;6.196;2023-04-12T00:05:10;6.93;;;2.07;;
14040;SDS011;7095;51.388;6.196;2023-04-12T00:07:40;11.83;;;2.60;;
14040;SDS011;7095;51.388;6.196;2023-04-12T00:10:14;8.60;;;2.50;;
14040;SDS011;7095;51.388;6.196;2023-04-12T00:12:42;6.47;;;1.90;;
14040;SDS011;7095;51.388;6.196;2023-04-12T00:15:12;10.53;;;3.00;;
14040;SDS011;7095;51.388;6.196;2023-04-12T00:17:41;10.47;;;2.60;;
14040;SDS011;7095;51.388;6.196;2023-04-12T00:20:09;7.93;;;2.13;;
14040;SDS011;7095;51.388;6.196;2023-04-12T00:22:38;11.10;;;2.60;;
14040;SDS011;7095;51.388;6.196;2023-04-12T00:25:10;13.00;;;2.73;;
14040;SDS011;7095;51.388;6.196;2023-04-12T00:27:40;8.20;;;2.17;;
14040;SDS011;7095;51.388;6.196;2023-04-12T00:30:09;7.47;;;2.80;;
14040;SDS011;7095;51.388;6.196;2023-04-12T00:32:38;10.33;;;2.90;;
14040;SDS011;7095;51.388;6.196;2023-04-12T00:35:06;9.63;;;2.90;;
14040;SDS011;7095;51.388;6.196;2023-04-12T00:37:35;7.03;;;1.77;;
14040;SDS011;7095;51.388;6.196;2023-04-12T00:40:05;7.67;;;2.60;;
14040;SDS011;7095;51.388;6.196;2023-04-12T00:42:35;6.80;;;2.20;;
14040;SDS011;7095;51.388;6.196;2023-04-12T00:45:06;8.07;;;2.30;;
14040;SDS011;7095;51.388;6.196;2023-04-12T00:47:35;12.73;;;3.30;;
14040;SDS011;7095;51.388;6.196;2023-04-12T00:50:05;7.30;;;2.20;;
14040;SDS011;7095;51.388;6.196;2023-04-12T00:52:35;7.07;;;2.20;;
14040;SDS011;7095;51.388;6.196;2023-04-12T00:55:05;5.20;;;1.60;;
14040;SDS011;7095;51.388;6.196;2023-04-12T00:57:36;10.07;;;2.20;;
14040;SDS011;7095;51.388;6.196;2023-04-12T01:00:08;9.33;;;2.13;;
14040;SDS011;7095;51.388;6.196;2023-04-12T01:02:39;5.13;;;1.97;;
14040;SDS011;7095;51.388;6.196;2023-04-12T01:05:14;7.60;;;2.07;;
14040;SDS011;7095;51.388;6.196;2023-04-12T01:07:54;9.90;;;2.87;;
14040;SDS011;7095;51.388;6.196;2023-04-12T01:10:34;8.13;;;2.17;;
14040;SDS011;7095;51.388;6.196;2023-04-12T01:13:14;6.00;;;1.90;;
14040;SDS011;7095;51.388;6.196;2023-04-12T01:15:56;7.30;;;2.57;;
14040;SDS011;7095;51.388;6.196;2023-04-12T01:18:29;7.10;;;2.07;;
14040;SDS011;7095;51.388;6.196;2023-04-12T01:21:09;9.60;;;2.50;;
14040;SDS011;7095;51.388;6.196;2023-04-12T01:23:47;10.03;;;3.40;;
14040;SDS011;7095;51.388;6.196;2023-04-12T01:26:29;9.50;;;2.30;;
14040;SDS011;7095;51.388;6.196;2023-04-12T01:29:06;8.90;;;2.63;;
14040;SDS011;7095;51.388;6.196;2023-04-12T01:31:38;9.50;;;2.50;;
14040;SDS011;7095;51.388;6.196;2023-04-12T01:34:08;6.17;;;2.20;;
14040;SDS011;7095;51.388;6.196;2023-04-12T01:36:39;8.83;;;2.07;;
14040;SDS011;7095;51.388;6.196;2023-04-12T01:39:09;7.23;;;2.03;;
14040;SDS011;7095;51.388;6.196;2023-04-12T01:41:39;9.30;;;2.87;;
14040;SDS011;7095;51.388;6.196;2023-04-12T01:44:13;7.10;;;1.77;;
14040;SDS011;7095;51.388;6.196;2023-04-12T01:46:42;8.67;;;2.43;;
14040;SDS011;7095;51.388;6.196;2023-04-12T01:49:12;4.73;;;2.20;;
14040;SDS011;7095;51.388;6.196;2023-04-12T01:51:47;9.53;;;2.50;;
14040;SDS011;7095;51.388;6.196;2023-04-12T01:54:18;6.47;;;1.83;;
14040;SDS011;7095;51.388;6.196;2023-04-12T01:56:53;8.80;;;2.13;;
14040;SDS011;7095;51.388;6.196;2023-04-12T01:59:27;11.63;;;2.60;;
14040;SDS011;7095;51.388;6.196;2023-04-12T02:01:59;11.47;;;2.70;;
14040;SDS011;7095;51.388;6.196;2023-04-12T02:04:31;8.47;;;2.70;;
14040;SDS011;7095;51.388;6.196;2023-04-12T02:07:05;5.83;;;2.60;;
14040;SDS011;7095;51.388;6.196;2023-04-12T02:09:35;8.83;;;2.40;;
14040;SDS011;7095;51.388;6.196;2023-04-12T02:12:05;5.43;;;2.50;;
14040;SDS011;7095;51.388;6.196;2023-04-12T02:14:36;9.13;;;2.43;;
14040;SDS011;7095;51.388;6.196;2023-04-12T02:17:04;6.53;;;2.80;;
14040;SDS011;7095;51.388;6.196;2023-04-12T02:19:35;5.93;;;2.03;;
14040;SDS011;7095;51.388;6.196;2023-04-12T02:22:04;7.40;;;2.67;;
14040;SDS011;7095;51.388;6.196;2023-04-12T02:24:34;8.70;;;2.57;;
14040;SDS011;7095;51.388;6.196;2023-04-12T02:27:02;11.90;;;2.07;;
14040;SDS011;7095;51.388;6.196;2023-04-12T02:29:32;9.70;;;2.40;;
14040;SDS011;7095;51.388;6.196;2023-04-12T02:32:02;7.10;;;2.20;;
14040;SDS011;7095;51.388;6.196;2023-04-12T02:34:32;4.77;;;2.20;;
14040;SDS011;7095;51.388;6.196;2023-04-12T02:37:24;5.37;;;2.20;;
14040;SDS011;7095;51.388;6.196;2023-04-12T02:39:53;7.33;;;1.97;;
14040;SDS011;7095;51.388;6.196;2023-04-12T02:42:23;12.23;;;2.13;;
14040;SDS011;7095;51.388;6.196;2023-04-12T02:44:52;6.77;;;2.17;;
14040;SDS011;7095;51.388;6.196;2023-04-12T02:47:22;9.30;;;2.67;;
14040;SDS011;7095;51.388;6.196;2023-04-12T02:49:56;4.17;;;1.53;;
14040;SDS011;7095;51.388;6.196;2023-04-12T02:52:24;9.80;;;2.37;;
14040;SDS011;7095;51.388;6.196;2023-04-12T02:55:08;4.93;;;1.73;;
14040;SDS011;7095;51.388;6.196;2023-04-12T02:57:36;4.00;;;1.90;;
14040;SDS011;7095;51.388;6.196;2023-04-12T03:00:06;10.40;;;2.40;;
14040;SDS011;7095;51.388;6.196;2023-04-12T03:02:59;3.80;;;1.63;;
14040;SDS011;7095;51.388;6.196;2023-04-12T03:05:30;10.83;;;2.30;;
14040;SDS011;7095;51.388;6.196;2023-04-12T03:08:00;5.17;;;2.30;;
14040;SDS011;7095;51.388;6.196;2023-04-12T03:10:36;6.17;;;2.00;;
14040;SDS011;7095;51.388;6.196;2023-04-12T03:13:04;4.40;;;2.03;;
14040;SDS011;7095;51.388;6.196;2023-04-12T03:15:38;8.23;;;1.93;;
14040;SDS011;7095;51.388;6.196;2023-04-12T03:18:08;8.70;;;2.47;;
14040;SDS011;7095;51.388;6.196;2023-04-12T03:20:43;6.50;;;2.07;;
14040;SDS011;7095;51.388;6.196;2023-04-12T03:23:14;5.87;;;2.13;;
14040;SDS011;7095;51.388;6.196;2023-04-12T03:25:46;7.50;;;1.93;;
14040;SDS011;7095;51.388;6.196;2023-04-12T03:28:34;8.30;;;1.87;;
14040;SDS011;7095;51.388;6.196;2023-04-12T03:31:05;4.53;;;1.80;;
14040;SDS011;7095;51.388;6.196;2023-04-12T03:33:43;4.83;;;2.60;;
14040;SDS011;7095;51.388;6.196;2023-04-12T03:36:23;5.97;;;2.27;;
14040;SDS011;7095;51.388;6.196;2023-04-12T03:38:59;5.13;;;1.73;;
14040;SDS011;7095;51.388;6.196;2023-04-12T03:41:30;4.87;;;1.70;;
14040;SDS011;7095;51.388;6.196;2023-04-12T03:44:02;5.20;;;1.90;;
14040;SDS011;7095;51.388;6.196;2023-04-12T03:46:32;3.93;;;1.90;;
14040;SDS011;7095;51.388;6.196;2023-04-12T03:49:07;4.30;;;1.83;;
14040;SDS011;7095;51.388;6.196;2023-04-12T03:51:36;6.63;;;1.83;;
14040;SDS011;7095;51.388;6.196;2023-04-12T03:54:09;5.70;;;2.33;;
14040;SDS011;7095;51.388;6.196;2023-04-12T03:56:53;3.97;;;1.93;;
14040;SDS011;7095;51.388;6.196;2023-04-12T03:59:27;3.67;;;1.93;;
14040;SDS011;7095;51.388;6.196;2023-04-12T04:01:55;4.90;;;2.20;;
14040;SDS011;7095;51.388;6.196;2023-04-12T04:04:27;3.70;;;1.30;;
14040;SDS011;7095;51.388;6.196;2023-04-12T04:07:00;9.10;;;2.00;;
14040;SDS011;7095;51.388;6.196;2023-04-12T04:09:37;3.47;;;2.00;;
14040;SDS011;7095;51.388;6.196;2023-04-12T04:12:07;5.70;;;1.93;;
14040;SDS011;7095;51.388;6.196;2023-04-12T04:14:39;5.10;;;2.13;;
14040;SDS011;7095;51.388;6.196;2023-04-12T04:17:11;6.63;;;2.20;;
14040;SDS011;7095;51.388;6.196;2023-04-12T04:19:41;6.30;;;2.07;;
14040;SDS011;7095;51.388;6.196;2023-04-12T04:22:10;5.23;;;1.80;;
14040;SDS011;7095;51.388;6.196;2023-04-12T04:24:39;4.13;;;1.90;;
14040;SDS011;7095;51.388;6.196;2023-04-12T04:27:08;8.37;;;2.03;;
14040;SDS011;7095;51.388;6.196;2023-04-12T04:29:37;3.37;;;1.97;;
14040;SDS011;7095;51.388;6.196;2023-04-12T04:32:12;7.30;;;2.00;;
14040;SDS011;7095;51.388;6.196;2023-04-12T04:34:44;3.93;;;2.10;;
14040;SDS011;7095;51.388;6.196;2023-04-12T04:37:16;6.10;;;2.13;;
14040;SDS011;7095;51.388;6.196;2023-04-12T04:39:48;4.50;;;1.87;;
14040;SDS011;7095;51.388;6.196;2023-04-12T04:42:16;4.47;;;2.00;;
14040;SDS011;7095;51.388;6.196;2023-04-12T04:44:56;5.93;;;2.17;;
14040;SDS011;7095;51.388;6.196;2023-04-12T04:47:36;4.73;;;1.93;;
14040;SDS011;7095;51.388;6.196;2023-04-12T04:50:07;6.47;;;2.00;;
14040;SDS011;7095;51.388;6.196;2023-04-12T04:52:36;3.73;;;2.30;;
14040;SDS011;7095;51.388;6.196;2023-04-12T04:55:09;9.13;;;2.70;;
14040;SDS011;7095;51.388;6.196;2023-04-12T04:57:43;2.80;;;2.00;;
14040;SDS011;7095;51.388;6.196;2023-04-12T05:00:13;5.87;;;2.50;;
14040;SDS011;7095;51.388;6.196;2023-04-12T05:02:45;4.17;;;2.27;;
14040;SDS011;7095;51.388;6.196;2023-04-12T05:05:23;8.10;;;2.57;;
14040;SDS011;7095;51.388;6.196;2023-04-12T05:07:59;11.50;;;3.07;;
14040;SDS011;7095;51.388;6.196;2023-04-12T05:10:30;5.50;;;2.80;;
14040;SDS011;7095;51.388;6.196;2023-04-12T05:13:01;8.90;;;2.33;;
14040;SDS011;7095;51.388;6.196;2023-04-12T05:15:29;3.30;;;2.07;;
14040;SDS011;7095;51.388;6.196;2023-04-12T05:17:59;6.80;;;2.50;;
14040;SDS011;7095;51.388;6.196;2023-04-12T05:20:30;7.07;;;2.37;;
14040;SDS011;7095;51.388;6.196;2023-04-12T05:22:59;5.10;;;2.40;;
14040;SDS011;7095;51.388;6.196;2023-04-12T05:25:28;7.13;;;2.80;;
14040;SDS011;7095;51.388;6.196;2023-04-12T05:28:02;6.47;;;2.70;;
14040;SDS011;7095;51.388;6.196;2023-04-12T05:30:32;6.93;;;2.13;;
14040;SDS011;7095;51.388;6.196;2023-04-12T05:33:01;4.63;;;2.20;;
14040;SDS011;7095;51.388;6.196;2023-04-12T05:35:31;6.97;;;2.27;;
14040;SDS011;7095;51.388;6.196;2023-04-12T05:38:00;4.83;;;2.30;;
14040;SDS011;7095;51.388;6.196;2023-04-12T05:40:29;14.10;;;2.50;;
14040;SDS011;7095;51.388;6.196;2023-04-12T05:42:58;10.93;;;3.17;;
14040;SDS011;7095;51.388;6.196;2023-04-12T05:45:29;13.17;;;2.70;;
14040;SDS011;7095;51.388;6.196;2023-04-12T05:47:58;5.73;;;2.80;;
14040;SDS011;7095;51.388;6.196;2023-04-12T05:50:28;4.17;;;1.90;;
14040;SDS011;7095;51.388;6.196;2023-04-12T05:52:58;7.27;;;2.10;;
14040;SDS011;7095;51.388;6.196;2023-04-12T05:55:30;3.27;;;2.20;;
14040;SDS011;7095;51.388;6.196;2023-04-12T05:58:00;5.80;;;2.50;;
14040;SDS011;7095;51.388;6.196;2023-04-12T06:00:29;7.67;;;2.50;;
14040;SDS011;7095;51.388;6.196;2023-04-12T06:02:58;4.27;;;2.60;;
14040;SDS011;7095;51.388;6.196;2023-04-12T06:05:26;5.63;;;2.20;;
14040;SDS011;7095;51.388;6.196;2023-04-12T06:07:55;5.33;;;2.47;;
14040;SDS011;7095;51.388;6.196;2023-04-12T06:10:32;2.97;;;1.73;;
14040;SDS011;7095;51.388;6.196;2023-04-12T06:13:02;5.93;;;2.43;;
14040;SDS011;7095;51.388;6.196;2023-04-12T06:15:31;5.90;;;1.77;;
14040;SDS011;7095;51.388;6.196;2023-04-12T06:18:00;8.13;;;2.63;;
14040;SDS011;7095;51.388;6.196;2023-04-12T06:20:29;5.17;;;2.20;;
14040;SDS011;7095;51.388;6.196;2023-04-12T06:22:59;3.00;;;2.00;;
14040;SDS011;7095;51.388;6.196;2023-04-12T06:25:27;4.53;;;2.33;;
14040;SDS011;7095;51.388;6.196;2023-04-12T06:27:57;2.13;;;1.90;;
14040;SDS011;7095;51.388;6.196;2023-04-12T06:30:25;8.93;;;2.37;;
14040;SDS011;7095;51.388;6.196;2023-04-12T06:32:54;7.30;;;2.20;;
14040;SDS011;7095;51.388;6.196;2023-04-12T06:35:23;4.67;;;1.80;;
14040;SDS011;7095;51.388;6.196;2023-04-12T06:37:52;6.33;;;1.90;;
14040;SDS011;7095;51.388;6.196;2023-04-12T06:40:22;2.30;;;2.00;;
14040;SDS011;7095;51.388;6.196;2023-04-12T06:42:51;4.77;;;2.30;;
14040;SDS011;7095;51.388;6.196;2023-04-12T06:45:24;4.07;;;1.97;;
14040;SDS011;7095;51.388;6.196;2023-04-12T06:47:53;6.10;;;1.97;;
14040;SDS011;7095;51.388;6.196;2023-04-12T06:50:23;4.97;;;1.73;;
14040;SDS011;7095;51.388;6.196;2023-04-12T06:52:52;5.53;;;2.10;;
14040;SDS011;7095;51.388;6.196;2023-04-12T06:55:22;3.63;;;1.90;;
14040;SDS011;7095;51.388;6.196;2023-04-12T06:57:52;2.93;;;1.97;;
14040;SDS011;7095;51.388;6.196;2023-04-12T07:00:21;4.17;;;1.80;;
14040;SDS011;7095;51.388;6.196;2023-04-12T07:02:50;5.87;;;2.07;;
14040;SDS011;7095;51.388;6.196;2023-04-12T07:05:19;3.30;;;1.63;;
14040;SDS011;7095;51.388;6.196;2023-04-12T07:07:47;2.30;;;1.77;;
14040;SDS011;7095;51.388;6.196;2023-04-12T07:10:16;4.00;;;2.23;;
14040;SDS011;7095;51.388;6.196;2023-04-12T07:12:46;2.50;;;2.00;;
14040;SDS011;7095;51.388;6.196;2023-04-12T07:15:15;5.67;;;1.90;;
14040;SDS011;7095;51.388;6.196;2023-04-12T07:17:43;3.33;;;1.70;;
14040;SDS011;7095;51.388;6.196;2023-04-12T07:20:12;4.23;;;1.60;;
14040;SDS011;7095;51.388;6.196;2023-04-12T07:22:40;4.00;;;1.60;;
14040;SDS011;7095;51.388;6.196;2023-04-12T07:25:08;4.07;;;1.97;;
14040;SDS011;7095;51.388;6.196;2023-04-12T07:27:37;3.67;;;1.40;;
14040;SDS011;7095;51.388;6.196;2023-04-12T07:30:07;8.47;;;1.53;;
14040;SDS011;7095;51.388;6.196;2023-04-12T07:32:36;2.33;;;1.77;;
14040;SDS011;7095;51.388;6.196;2023-04-12T07:35:05;2.50;;;1.60;;
14040;SDS011;7095;51.388;6.196;2023-04-12T07:37:34;4.90;;;1.60;;
14040;SDS011;7095;51.388;6.196;2023-04-12T07:40:03;2.47;;;1.77;;
14040;SDS011;7095;51.388;6.196;2023-04-12T07:42:33;2.03;;;1.40;;
14040;SDS011;7095;51.388;6.196;2023-04-12T07:45:01;4.50;;;1.97;;
14040;SDS011;7095;51.388;6.196;2023-04-12T07:47:31;4.37;;;1.73;;
14040;SDS011;7095;51.388;6.196;2023-04-12T07:50:00;6.73;;;2.07;;
14040;SDS011;7095;51.388;6.196;2023-04-12T07:52:30;2.37;;;1.60;;
14040;SDS011;7095;51.388;6.196;2023-04-12T07:54:59;7.70;;;2.17;;
14040;SDS011;7095;51.388;6.196;2023-04-12T07:57:27;4.00;;;2.00;;
14040;SDS011;7095;51.388;6.196;2023-04-12T07:59:59;3.37;;;2.10;;
14040;SDS011;7095;51.388;6.196;2023-04-12T08:02:42;5.60;;;1.77;;
14040;SDS011;7095;51.388;6.196;2023-04-12T08:05:11;4.00;;;1.90;;
14040;SDS011;7095;51.388;6.196;2023-04-12T08:07:40;2.60;;;2.20;;
14040;SDS011;7095;51.388;6.196;2023-04-12T08:10:08;3.83;;;2.13;;
14040;SDS011;7095;51.388;6.196;2023-04-12T08:12:37;3.63;;;2.13;;
14040;SDS011;7095;51.388;6.196;2023-04-12T08:15:07;4.97;;;2.33;;
14040;SDS011;7095;51.388;6.196;2023-04-12T08:17:36;7.00;;;2.57;;
14040;SDS011;7095;51.388;6.196;2023-04-12T08:20:07;4.50;;;2.27;;
14040;SDS011;7095;51.388;6.196;2023-04-12T08:22:36;4.03;;;2.33;;
14040;SDS011;7095;51.388;6.196;2023-04-12T08:25:06;3.67;;;2.03;;
14040;SDS011;7095;51.388;6.196;2023-04-12T08:27:37;5.53;;;2.40;;
14040;SDS011;7095;51.388;6.196;2023-04-12T08:30:08;2.63;;;2.13;;
14040;SDS011;7095;51.388;6.196;2023-04-12T08:32:37;6.13;;;3.00;;
14040;SDS011;7095;51.388;6.196;2023-04-12T08:35:09;4.13;;;3.10;;
14040;SDS011;7095;51.388;6.196;2023-04-12T08:37:37;5.63;;;2.43;;
14040;SDS011;7095;51.388;6.196;2023-04-12T08:40:06;5.80;;;2.77;;
14040;SDS011;7095;51.388;6.196;2023-04-12T08:42:35;4.90;;;2.73;;
14040;SDS011;7095;51.388;6.196;2023-04-12T08:45:05;2.67;;;2.40;;
14040;SDS011;7095;51.388;6.196;2023-04-12T08:47:36;3.10;;;2.80;;
14040;SDS011;7095;51.388;6.196;2023-04-12T08:50:06;3.40;;;3.10;;
14040;SDS011;7095;51.388;6.196;2023-04-12T08:52:40;3.17;;;2.80;;
14040;SDS011;7095;51.388;6.196;2023-04-12T08:55:09;6.83;;;3.90;;
14040;SDS011;7095;51.388;6.196;2023-04-12T08:57:39;6.33;;;4.23;;
14040;SDS011;7095;51.388;6.196;2023-04-12T09:00:09;4.50;;;4.10;;
14040;SDS011;7095;51.388;6.196;2023-04-12T09:02:39;6.20;;;4.57;;
14040;SDS011;7095;51.388;6.196;2023-04-12T09:05:10;7.47;;;4.80;;
14040;SDS011;7095;51.388;6.196;2023-04-12T09:07:40;4.87;;;4.10;;
14040;SDS011;7095;51.388;6.196;2023-04-12T09:10:09;4.63;;;4.23;;
14040;SDS011;7095;51.388;6.196;2023-04-12T09:12:43;5.57;;;4.93;;
14040;SDS011;7095;51.388;6.196;2023-04-12T09:15:15;8.63;;;4.70;;
14040;SDS011;7095;51.388;6.196;2023-04-12T09:17:44;9.00;;;3.63;;
14040;SDS011;7095;51.388;6.196;2023-04-12T09:20:22;12.00;;;4.40;;
14040;SDS011;7095;51.388;6.196;2023-04-12T09:22:52;11.23;;;3.83;;
14040;SDS011;7095;51.388;6.196;2023-04-12T09:25:37;8.53;;;3.43;;
14040;SDS011;7095;51.388;6.196;2023-04-12T09:28:17;12.07;;;4.00;;
14040;SDS011;7095;51.388;6.196;2023-04-12T09:30:47;15.60;;;3.93;;
14040;SDS011;7095;51.388;6.196;2023-04-12T09:33:18;7.30;;;3.80;;
14040;SDS011;7095;51.388;6.196;2023-04-12T09:35:48;12.97;;;3.43;;
14040;SDS011;7095;51.388;6.196;2023-04-12T09:38:18;17.80;;;3.50;;
14040;SDS011;7095;51.388;6.196;2023-04-12T09:40:46;12.97;;;3.60;;
14040;SDS011;7095;51.388;6.196;2023-04-12T09:43:15;14.30;;;3.40;;
14040;SDS011;7095;51.388;6.196;2023-04-12T09:45:44;9.00;;;3.10;;
14040;SDS011;7095;51.388;6.196;2023-04-12T09:48:17;10.33;;;3.53;;
14040;SDS011;7095;51.388;6.196;2023-04-12T09:50:46;11.23;;;3.40;;
14040;SDS011;7095;51.388;6.196;2023-04-12T09:53:16;11.57;;;2.83;;
14040;SDS011;7095;51.388;6.196;2023-04-12T09:55:45;14.13;;;4.27;;
14040;SDS011;7095;51.388;6.196;2023-04-12T09:58:16;6.33;;;2.33;;
14040;SDS011;7095;51.388;6.196;2023-04-12T10:00:46;6.10;;;2.33;;
14040;SDS011;7095;51.388;6.196;2023-04-12T10:03:15;9.50;;;3.43;;
14040;SDS011;7095;51.388;6.196;2023-04-12T10:05:45;9.10;;;2.70;;
14040;SDS011;7095;51.388;6.196;2023-04-12T10:08:16;7.17;;;2.73;;
14040;SDS011;7095;51.388;6.196;2023-04-12T10:10:45;5.50;;;2.10;;
14040;SDS011;7095;51.388;6.196;2023-04-12T10:13:14;7.93;;;1.87;;
14040;SDS011;7095;51.388;6.196;2023-04-12T10:15:44;11.53;;;3.20;;
14040;SDS011;7095;51.388;6.196;2023-04-12T10:18:15;17.30;;;2.87;;
14040;SDS011;7095;51.388;6.196;2023-04-12T10:20:45;7.20;;;2.17;;
14040;SDS011;7095;51.388;6.196;2023-04-12T10:23:17;6.67;;;1.57;;
14040;SDS011;7095;51.388;6.196;2023-04-12T10:25:46;5.90;;;2.13;;
14040;SDS011;7095;51.388;6.196;2023-04-12T10:28:17;6.67;;;2.60;;
14040;SDS011;7095;51.388;6.196;2023-04-12T10:30:47;12.70;;;2.77;;
14040;SDS011;7095;51.388;6.196;2023-04-12T10:33:19;9.23;;;2.70;;
14040;SDS011;7095;51.388;6.196;2023-04-12T10:35:53;8.73;;;2.97;;
14040;SDS011;7095;51.388;6.196;2023-04-12T10:38:26;11.20;;;2.93;;
14040;SDS011;7095;51.388;6.196;2023-04-12T10:41:08;8.93;;;2.67;;
14040;SDS011;7095;51.388;6.196;2023-04-12T10:43:40;7.97;;;3.13;;
14040;SDS011;7095;51.388;6.196;2023-04-12T10:49:11;10.67;;;3.40;;
14040;SDS011;7095;51.388;6.196;2023-04-12T10:52:09;9.27;;;3.40;;
14040;SDS011;7095;51.388;6.196;2023-04-12T10:54:41;10.50;;;3.30;;
14040;SDS011;7095;51.388;6.196;2023-04-12T11:00:11;11.93;;;3.23;;
14040;SDS011;7095;51.388;6.196;2023-04-12T11:05:55;9.30;;;3.53;;
14040;SDS011;7095;51.388;6.196;2023-04-12T11:08:53;8.40;;;3.37;;
14040;SDS011;7095;51.388;6.196;2023-04-12T11:11:27;9.73;;;4.00;;
14040;SDS011;7095;51.388;6.196;2023-04-12T11:14:01;12.90;;;3.43;;
14040;SDS011;7095;51.388;6.196;2023-04-12T11:16:30;10.17;;;3.60;;
14040;SDS011;7095;51.388;6.196;2023-04-12T11:18:58;12.07;;;4.53;;
14040;SDS011;7095;51.388;6.196;2023-04-12T11:21:27;11.40;;;4.07;;
14040;SDS011;7095;51.388;6.196;2023-04-12T11:23:56;10.00;;;3.77;;
14040;SDS011;7095;51.388;6.196;2023-04-12T11:26:29;17.00;;;4.97;;
14040;SDS011;7095;51.388;6.196;2023-04-12T11:28:58;16.37;;;4.43;;
14040;SDS011;7095;51.388;6.196;2023-04-12T11:31:36;9.03;;;3.77;;
14040;SDS011;7095;51.388;6.196;2023-04-12T11:34:05;15.50;;;4.53;;
14040;SDS011;7095;51.388;6.196;2023-04-12T11:36:33;14.23;;;4.17;;
14040;SDS011;7095;51.388;6.196;2023-04-12T11:39:02;12.87;;;4.47;;
14040;SDS011;7095;51.388;6.196;2023-04-12T11:41:32;23.07;;;4.77;;
14040;SDS011;7095;51.388;6.196;2023-04-12T11:44:01;15.13;;;4.63;;
14040;SDS011;7095;51.388;6.196;2023-04-12T11:46:32;15.83;;;4.73;;
14040;SDS011;7095;51.388;6.196;2023-04-12T11:49:01;17.33;;;5.27;;
14040;SDS011;7095;51.388;6.196;2023-04-12T11:51:30;14.67;;;5.83;;
14040;SDS011;7095;51.388;6.196;2023-04-12T11:53:59;19.03;;;5.60;;
14040;SDS011;7095;51.388;6.196;2023-04-12T11:56:28;19.07;;;5.50;;
14040;SDS011;7095;51.388;6.196;2023-04-12T11:59:00;17.23;;;5.43;;
14040;SDS011;7095;51.388;6.196;2023-04-12T12:01:29;14.97;;;5.20;;
14040;SDS011;7095;51.388;6.196;2023-04-12T12:03:59;17.97;;;4.93;;
14040;SDS011;7095;51.388;6.196;2023-04-12T12:06:29;18.30;;;5.03;;
14040;SDS011;7095;51.388;6.196;2023-04-12T12:09:01;13.60;;;4.43;;
14040;SDS011;7095;51.388;6.196;2023-04-12T12:11:30;17.07;;;4.73;;
14040;SDS011;7095;51.388;6.196;2023-04-12T12:13:58;14.70;;;4.93;;
14040;SDS011;7095;51.388;6.196;2023-04-12T12:16:29;14.23;;;5.30;;
14040;SDS011;7095;51.388;6.196;2023-04-12T12:18:57;19.70;;;4.80;;
14040;SDS011;7095;51.388;6.196;2023-04-12T12:21:30;14.53;;;5.60;;
14040;SDS011;7095;51.388;6.196;2023-04-12T12:23:59;14.63;;;4.80;;
14040;SDS011;7095;51.388;6.196;2023-04-12T12:26:28;15.23;;;5.00;;
14040;SDS011;7095;51.388;6.196;2023-04-12T12:28:57;13.80;;;4.50;;
14040;SDS011;7095;51.388;6.196;2023-04-12T12:31:28;19.83;;;4.90;;
14040;SDS011;7095;51.388;6.196;2023-04-12T12:33:57;13.70;;;4.27;;
14040;SDS011;7095;51.388;6.196;2023-04-12T12:36:32;16.00;;;4.27;;
14040;SDS011;7095;51.388;6.196;2023-04-12T12:39:03;18.57;;;5.07;;
14040;SDS011;7095;51.388;6.196;2023-04-12T12:41:37;17.43;;;5.40;;
14040;SDS011;7095;51.388;6.196;2023-04-12T12:44:07;18.10;;;5.37;;
14040;SDS011;7095;51.388;6.196;2023-04-12T12:46:38;20.60;;;5.83;;
14040;SDS011;7095;51.388;6.196;2023-04-12T12:49:19;20.73;;;5.90;;
14040;SDS011;7095;51.388;6.196;2023-04-12T12:51:48;15.70;;;5.30;;
14040;SDS011;7095;51.388;6.196;2023-04-12T12:54:17;12.87;;;5.00;;
14040;SDS011;7095;51.388;6.196;2023-04-12T12:57:05;14.40;;;5.27;;
14040;SDS011;7095;51.388;6.196;2023-04-12T12:59:34;15.87;;;5.93;;
14040;SDS011;7095;51.388;6.196;2023-04-12T13:02:04;20.20;;;6.00;;
14040;SDS011;7095;51.388;6.196;2023-04-12T13:04:33;28.63;;;5.73;;
14040;SDS011;7095;51.388;6.196;2023-04-12T13:07:02;15.50;;;5.63;;
14040;SDS011;7095;51.388;6.196;2023-04-12T13:09:33;18.93;;;5.43;;
14040;SDS011;7095;51.388;6.196;2023-04-12T13:12:02;15.37;;;5.90;;
14040;SDS011;7095;51.388;6.196;2023-04-12T13:14:30;15.47;;;5.80;;
14040;SDS011;7095;51.388;6.196;2023-04-12T13:16:59;15.43;;;4.90;;
14040;SDS011;7095;51.388;6.196;2023-04-12T13:19:29;15.73;;;5.10;;
14040;SDS011;7095;51.388;6.196;2023-04-12T13:21:57;17.03;;;4.47;;
14040;SDS011;7095;51.388;6.196;2023-04-12T13:24:25;11.40;;;3.50;;
14040;SDS011;7095;51.388;6.196;2023-04-12T13:26:54;11.97;;;3.20;;
14040;SDS011;7095;51.388;6.196;2023-04-12T13:29:23;10.03;;;3.13;;
14040;SDS011;7095;51.388;6.196;2023-04-12T13:31:52;15.43;;;4.20;;
14040;SDS011;7095;51.388;6.196;2023-04-12T13:34:21;10.90;;;2.87;;
14040;SDS011;7095;51.388;6.196;2023-04-12T13:36:51;11.93;;;3.60;;
14040;SDS011;7095;51.388;6.196;2023-04-12T13:39:19;15.83;;;3.53;;
14040;SDS011;7095;51.388;6.196;2023-04-12T13:41:48;15.80;;;3.47;;
14040;SDS011;7095;51.388;6.196;2023-04-12T13:44:17;11.57;;;4.27;;
14040;SDS011;7095;51.388;6.196;2023-04-12T13:46:46;19.03;;;4.60;;
14040;SDS011;7095;51.388;6.196;2023-04-12T13:49:14;18.00;;;4.73;;
14040;SDS011;7095;51.388;6.196;2023-04-12T13:51:43;18.57;;;4.90;;
14040;SDS011;7095;51.388;6.196;2023-04-12T13:54:13;15.63;;;4.10;;
14040;SDS011;7095;51.388;6.196;2023-04-12T13:56:43;14.70;;;4.50;;
14040;SDS011;7095;51.388;6.196;2023-04-12T13:59:11;10.47;;;4.40;;
14040;SDS011;7095;51.388;6.196;2023-04-12T14:01:40;13.40;;;4.53;;
14040;SDS011;7095;51.388;6.196;2023-04-12T14:04:09;14.90;;;4.80;;
14040;SDS011;7095;51.388;6.196;2023-04-12T14:06:37;13.30;;;4.77;;
14040;SDS011;7095;51.388;6.196;2023-04-12T14:09:06;12.90;;;4.77;;
14040;SDS011;7095;51.388;6.196;2023-04-12T14:11:45;20.23;;;5.30;;
14040;SDS011;7095;51.388;6.196;2023-04-12T14:14:14;15.70;;;5.30;;
14040;SDS011;7095;51.388;6.196;2023-04-12T14:16:43;16.37;;;5.50;;
14040;SDS011;7095;51.388;6.196;2023-04-12T14:19:11;4.97;;;2.10;;
14040;SDS011;7095;51.388;6.196;2023-04-12T14:21:40;2.47;;;1.13;;
14040;SDS011;7095;51.388;6.196;2023-04-12T14:24:08;2.40;;;1.30;;
14040;SDS011;7095;51.388;6.196;2023-04-12T14:26:37;1.50;;;1.20;;
14040;SDS011;7095;51.388;6.196;2023-04-12T14:29:08;2.77;;;0.90;;
14040;SDS011;7095;51.388;6.196;2023-04-12T14:31:36;5.53;;;1.17;;
14040;SDS011;7095;51.388;6.196;2023-04-12T14:34:05;3.43;;;1.10;;
14040;SDS011;7095;51.388;6.196;2023-04-12T14:36:35;5.47;;;1.23;;
14040;SDS011;7095;51.388;6.196;2023-04-12T14:39:04;5.60;;;1.30;;
14040;SDS011;7095;51.388;6.196;2023-04-12T14:41:36;3.10;;;1.17;;
14040;SDS011;7095;51.388;6.196;2023-04-12T14:44:05;3.57;;;1.40;;
14040;SDS011;7095;51.388;6.196;2023-04-12T14:46:35;4.17;;;1.43;;
14040;SDS011;7095;51.388;6.196;2023-04-12T14:49:04;2.43;;;1.40;;
14040;SDS011;7095;51.388;6.196;2023-04-12T14:51:33;3.73;;;1.37;;
14040;SDS011;7095;51.388;6.196;2023-04-12T14:54:02;4.87;;;1.60;;
14040;SDS011;7095;51.388;6.196;2023-04-12T14:56:30;4.37;;;1.67;;
14040;SDS011;7095;51.388;6.196;2023-04-12T14:59:10;4.90;;;1.40;;
14040;SDS011;7095;51.388;6.196;2023-04-12T15:01:39;4.07;;;1.60;;
14040;SDS011;7095;51.388;6.196;2023-04-12T15:04:08;4.37;;;2.47;;
14040;SDS011;7095;51.388;6.196;2023-04-12T15:06:37;4.23;;;1.57;;
14040;SDS011;7095;51.388;6.196;2023-04-12T15:09:08;3.90;;;1.67;;
14040;SDS011;7095;51.388;6.196;2023-04-12T15:11:37;6.47;;;2.13;;
14040;SDS011;7095;51.388;6.196;2023-04-12T15:14:14;3.17;;;1.40;;
14040;SDS011;7095;51.388;6.196;2023-04-12T15:16:45;4.37;;;1.77;;
14040;SDS011;7095;51.388;6.196;2023-04-12T15:19:16;3.10;;;1.47;;
14040;SDS011;7095;51.388;6.196;2023-04-12T15:21:49;4.23;;;1.60;;
14040;SDS011;7095;51.388;6.196;2023-04-12T15:24:18;3.63;;;1.43;;
14040;SDS011;7095;51.388;6.196;2023-04-12T15:26:48;4.50;;;1.37;;
14040;SDS011;7095;51.388;6.196;2023-04-12T15:29:22;7.43;;;1.97;;